createdAt,value
2018-10-17T00:00:09.475Z,15.50
2018-10-17T00:01:09.528Z,15.40
2018-10-17T00:02:09.384Z,18.30
2018-10-17T00:03:09.452Z,15.90
2018-10-17T00:04:09.289Z,15.20
2018-10-17T00:05:09.256Z,16.30
2018-10-17T00:06:09.208Z,16.80
2018-10-17T00:07:09.270Z,15.70
2018-10-17T00:08:09.114Z,16.00
2018-10-17T00:09:09.077Z,16.20
2018-10-17T00:10:09.025Z,15.20
2018-10-17T00:11:09.131Z,16.40
2018-10-17T00:12:08.942Z,16.10
2018-10-17T00:13:08.982Z,15.00
2018-10-17T00:14:08.849Z,15.40
2018-10-17T00:15:08.804Z,14.70
2018-10-17T00:16:08.769Z,15.50
2018-10-17T00:17:08.830Z,14.90
2018-10-17T00:18:08.678Z,16.20
2018-10-17T00:19:08.684Z,15.40
2018-10-17T00:20:08.582Z,15.90
2018-10-17T00:21:08.537Z,16.10
2018-10-17T00:22:08.492Z,16.60
2018-10-17T00:23:08.562Z,16.10
2018-10-17T00:24:08.412Z,16.80
2018-10-17T00:25:08.447Z,17.00
2018-10-17T00:26:08.321Z,16.40
2018-10-17T00:27:08.277Z,16.40
2018-10-17T00:28:08.227Z,17.40
2018-10-17T00:29:08.351Z,16.90
2018-10-17T00:30:08.150Z,17.60
2018-10-17T00:31:08.151Z,17.60
2018-10-17T00:32:08.050Z,18.10
2018-10-17T00:33:08.006Z,18.50
2018-10-17T00:34:07.959Z,18.30
2018-10-17T00:35:07.972Z,16.90
2018-10-17T00:36:07.873Z,17.70
2018-10-17T00:37:07.892Z,18.10
2018-10-17T00:38:07.785Z,17.50
2018-10-17T00:39:07.743Z,17.70
2018-10-17T00:40:07.694Z,17.40
2018-10-17T00:41:07.787Z,19.00
2018-10-17T00:42:07.659Z,17.10
2018-10-17T00:43:07.699Z,17.40
2018-10-17T00:44:07.599Z,18.60
2018-10-17T00:45:07.567Z,17.90
2018-10-17T00:46:07.433Z,17.80
2018-10-17T00:47:07.436Z,18.80
2018-10-17T00:48:07.345Z,17.80
2018-10-17T00:49:07.376Z,17.50
2018-10-17T00:50:07.256Z,19.30
2018-10-17T00:51:07.206Z,22.00
2018-10-17T00:52:07.161Z,19.10
2018-10-17T00:53:07.160Z,17.80
2018-10-17T00:54:07.078Z,19.80
2018-10-17T00:55:07.082Z,19.30
2018-10-17T00:56:06.984Z,19.30
2018-10-17T00:57:06.946Z,21.20
2018-10-17T00:58:06.900Z,19.80
2018-10-17T00:59:06.924Z,20.10
2018-10-17T01:00:06.805Z,20.70
2018-10-17T01:01:06.836Z,20.80
2018-10-17T01:02:06.717Z,20.30
2018-10-17T01:03:06.678Z,20.90
2018-10-17T01:04:06.632Z,20.50
2018-10-17T01:05:06.647Z,21.40
2018-10-17T01:06:06.544Z,20.70
2018-10-17T01:07:06.550Z,20.50
2018-10-17T01:08:06.452Z,20.30
2018-10-17T01:09:06.405Z,23.00
2018-10-17T01:10:06.366Z,20.70
2018-10-17T01:11:06.329Z,21.00
2018-10-17T01:12:06.272Z,21.20
2018-10-17T01:13:06.298Z,22.10
2018-10-17T01:14:06.188Z,19.70
2018-10-17T01:15:06.143Z,22.00
2018-10-17T01:16:06.094Z,22.40
2018-10-17T01:17:06.083Z,20.90
2018-10-17T01:18:06.009Z,22.90
2018-10-17T01:19:06.011Z,20.90
2018-10-17T01:20:05.915Z,21.90
2018-10-17T01:21:05.869Z,24.30
2018-10-17T01:22:05.826Z,21.40
2018-10-17T01:23:05.823Z,21.20
2018-10-17T01:24:05.741Z,21.50
2018-10-17T01:25:05.706Z,21.10
2018-10-17T01:26:05.656Z,23.40
2018-10-17T01:27:05.608Z,22.10
2018-10-17T01:28:05.564Z,21.20
2018-10-17T01:29:05.588Z,22.20
2018-10-17T01:30:05.472Z,22.50
2018-10-17T01:31:05.477Z,22.90
2018-10-17T01:32:05.384Z,22.10
2018-10-17T01:33:05.343Z,22.60
2018-10-17T01:34:05.295Z,22.50
2018-10-17T01:35:05.271Z,23.20
2018-10-17T01:36:05.204Z,22.80
2018-10-17T01:37:05.227Z,25.90
2018-10-17T01:38:05.116Z,24.20
2018-10-17T01:39:05.068Z,23.50
2018-10-17T01:40:05.027Z,23.40
2018-10-17T01:41:05.025Z,22.70
2018-10-17T01:42:04.945Z,22.50
2018-10-17T01:43:04.940Z,22.20
2018-10-17T01:44:04.847Z,23.20
2018-10-17T01:45:04.805Z,23.40
2018-10-17T01:46:04.753Z,23.40
2018-10-17T01:47:04.739Z,24.30
2018-10-17T01:48:04.664Z,24.80
2018-10-17T01:49:04.660Z,23.20
2018-10-17T01:50:04.574Z,26.80
2018-10-17T01:51:04.532Z,25.10
2018-10-17T01:52:04.495Z,27.60
2018-10-17T01:53:04.479Z,23.20
2018-10-17T01:54:04.408Z,23.90
2018-10-17T01:55:04.456Z,24.90
2018-10-17T01:56:04.315Z,25.90
2018-10-17T01:57:04.267Z,23.30
2018-10-17T01:58:04.220Z,22.30
2018-10-17T01:59:04.203Z,24.70
2018-10-17T02:00:04.139Z,25.60
2018-10-17T02:01:04.113Z,26.10
2018-10-17T02:02:04.040Z,27.30
2018-10-17T02:03:04.001Z,25.50
2018-10-17T02:04:03.960Z,27.30
2018-10-17T02:05:03.927Z,26.20
2018-10-17T02:06:03.871Z,27.10
2018-10-17T02:07:03.840Z,28.50
2018-10-17T02:08:03.770Z,27.90
2018-10-17T02:09:03.726Z,27.70
2018-10-17T02:10:03.691Z,31.40
2018-10-17T02:11:03.688Z,31.70
2018-10-17T02:12:03.596Z,30.30
2018-10-17T02:13:03.613Z,29.80
2018-10-17T02:14:03.501Z,30.30
2018-10-17T02:15:03.458Z,30.40
2018-10-17T02:16:03.412Z,28.60
2018-10-17T02:17:03.415Z,30.00
2018-10-17T02:18:03.321Z,30.90
2018-10-17T02:19:03.333Z,30.20
2018-10-17T02:20:03.243Z,29.90
2018-10-17T02:21:03.201Z,31.50
2018-10-17T02:22:03.150Z,30.10
2018-10-17T02:23:03.170Z,33.60
2018-10-17T02:24:03.053Z,31.60
2018-10-17T02:25:03.089Z,30.50
2018-10-17T02:26:02.962Z,33.20
2018-10-17T02:27:02.967Z,35.50
2018-10-17T02:28:02.883Z,36.80
2018-10-17T02:29:02.871Z,35.40
2018-10-17T02:30:02.851Z,37.60
2018-10-17T02:31:02.801Z,40.70
2018-10-17T02:32:02.694Z,36.60
2018-10-17T02:33:02.650Z,37.40
2018-10-17T02:34:02.612Z,39.60
2018-10-17T02:35:02.566Z,38.40
2018-10-17T02:36:02.516Z,41.60
2018-10-17T02:37:02.537Z,39.70
2018-10-17T02:38:02.457Z,41.20
2018-10-17T02:39:02.388Z,41.70
2018-10-17T02:40:02.343Z,39.10
2018-10-17T02:41:02.340Z,40.00
2018-10-17T02:42:02.246Z,39.10
2018-10-17T02:43:02.292Z,36.00
2018-10-17T02:44:02.164Z,37.10
2018-10-17T02:45:02.112Z,37.10
2018-10-17T02:46:02.072Z,35.70
2018-10-17T02:47:02.149Z,39.10
2018-10-17T02:48:01.975Z,38.00
2018-10-17T02:49:01.955Z,39.60
2018-10-17T02:50:01.888Z,36.90
2018-10-17T02:51:01.845Z,39.60
2018-10-17T02:52:01.802Z,38.90
2018-10-17T02:53:01.819Z,38.30
2018-10-17T02:54:01.711Z,39.70
2018-10-17T02:55:01.681Z,33.90
2018-10-17T02:56:01.623Z,35.80
2018-10-17T02:57:01.575Z,38.10
2018-10-17T02:58:01.533Z,34.90
2018-10-17T02:59:01.492Z,36.20
2018-10-17T03:00:01.438Z,36.60
2018-10-17T03:01:01.451Z,38.30
2018-10-17T03:02:01.348Z,37.10
2018-10-17T03:03:01.303Z,37.10
2018-10-17T03:04:01.259Z,38.40
2018-10-17T03:05:01.273Z,38.00
2018-10-17T03:06:01.170Z,40.70
2018-10-17T03:07:01.204Z,38.60
2018-10-17T03:08:01.076Z,37.70
2018-10-17T03:09:01.036Z,36.80
2018-10-17T03:10:00.994Z,38.50
2018-10-17T03:11:01.001Z,39.20
2018-10-17T03:12:00.909Z,38.20
2018-10-17T03:13:00.864Z,36.40
2018-10-17T03:14:00.809Z,39.50
2018-10-17T03:15:00.778Z,39.70
2018-10-17T03:16:00.725Z,40.60
2018-10-17T03:17:00.730Z,39.00
2018-10-17T03:18:00.629Z,39.30
2018-10-17T03:19:00.607Z,40.10
2018-10-17T03:20:00.544Z,40.60
2018-10-17T03:21:00.491Z,40.80
2018-10-17T03:22:00.448Z,42.70
2018-10-17T03:23:00.425Z,38.80
2018-10-17T03:24:00.364Z,40.60
2018-10-17T03:25:00.385Z,42.50
2018-10-17T03:26:00.267Z,42.90
2018-10-17T03:27:00.220Z,41.30
2018-10-17T03:28:00.301Z,45.90
2018-10-17T03:29:00.159Z,41.70
2018-10-17T03:30:00.088Z,41.40
2018-10-17T03:31:00.088Z,43.00
2018-10-17T03:31:59.999Z,45.90
2018-10-17T03:32:59.954Z,42.00
2018-10-17T03:33:59.911Z,42.60
2018-10-17T03:34:59.887Z,43.20
2018-10-17T03:35:59.998Z,44.60
2018-10-17T03:36:59.824Z,42.10
2018-10-17T03:37:59.768Z,41.00
2018-10-17T03:38:59.680Z,44.80
2018-10-17T03:39:59.636Z,45.60
2018-10-17T03:40:59.655Z,47.90
2018-10-17T03:41:59.550Z,47.20
2018-10-17T03:42:59.568Z,46.50
2018-10-17T03:43:59.461Z,45.90
2018-10-17T03:44:59.410Z,50.40
2018-10-17T03:45:59.366Z,48.50
2018-10-17T03:46:59.393Z,46.60
2018-10-17T03:47:59.273Z,49.90
2018-10-17T03:48:59.243Z,44.70
2018-10-17T03:49:59.361Z,44.00
2018-10-17T03:50:59.135Z,47.60
2018-10-17T03:51:59.090Z,44.80
2018-10-17T03:52:59.067Z,40.40
2018-10-17T03:53:59.003Z,43.00
2018-10-17T03:54:59.014Z,44.10
2018-10-17T03:55:58.913Z,41.60
2018-10-17T03:56:58.864Z,41.70
2018-10-17T03:57:58.817Z,44.40
2018-10-17T03:58:58.822Z,41.00
2018-10-17T03:59:58.730Z,43.40
2018-10-17T04:00:58.735Z,43.20
2018-10-17T04:01:58.636Z,43.40
2018-10-17T04:02:58.702Z,44.20
2018-10-17T04:03:58.558Z,45.00
2018-10-17T04:04:58.549Z,47.30
2018-10-17T04:05:58.463Z,46.40
2018-10-17T04:06:58.422Z,46.70
2018-10-17T04:07:58.374Z,48.20
2018-10-17T04:08:58.327Z,51.60
2018-10-17T04:09:58.281Z,50.40
2018-10-17T04:10:58.260Z,49.70
2018-10-17T04:11:58.191Z,47.10
2018-10-17T04:12:58.192Z,46.30
2018-10-17T04:13:58.097Z,54.00
2018-10-17T04:14:58.049Z,45.60
2018-10-17T04:15:58.006Z,46.40
2018-10-17T04:16:57.985Z,46.10
2018-10-17T04:17:57.917Z,44.60
2018-10-17T04:18:57.905Z,46.70
2018-10-17T04:19:57.830Z,47.80
2018-10-17T04:20:57.792Z,45.00
2018-10-17T04:21:57.729Z,44.20
2018-10-17T04:22:57.753Z,39.90
2018-10-17T04:23:57.643Z,40.90
2018-10-17T04:24:57.635Z,42.90
2018-10-17T04:25:57.550Z,45.30
2018-10-17T04:26:57.506Z,41.60
2018-10-17T04:27:57.466Z,43.50
2018-10-17T04:28:57.429Z,40.70
2018-10-17T04:29:57.369Z,43.80
2018-10-17T04:30:57.349Z,43.30
2018-10-17T04:31:57.281Z,41.10
2018-10-17T04:32:57.240Z,41.10
2018-10-17T04:33:57.194Z,37.30
2018-10-17T04:34:57.196Z,38.60
2018-10-17T04:35:57.162Z,42.10
2018-10-17T04:36:57.107Z,40.90
2018-10-17T04:37:57.009Z,38.50
2018-10-17T04:38:56.960Z,37.50
2018-10-17T04:39:56.925Z,41.30
2018-10-17T04:40:56.877Z,39.20
2018-10-17T04:41:56.824Z,39.50
2018-10-17T04:42:56.802Z,36.50
2018-10-17T04:43:56.739Z,38.00
2018-10-17T04:44:56.694Z,41.00
2018-10-17T04:45:56.650Z,39.20
2018-10-17T04:46:56.651Z,39.00
2018-10-17T04:47:56.553Z,40.80
2018-10-17T04:48:56.566Z,38.40
2018-10-17T04:49:56.463Z,39.80
2018-10-17T04:50:56.416Z,38.60
2018-10-17T04:51:56.372Z,37.20
2018-10-17T04:52:56.335Z,43.60
2018-10-17T04:53:56.280Z,36.20
2018-10-17T04:54:56.287Z,37.90
2018-10-17T04:55:56.198Z,38.80
2018-10-17T04:56:56.147Z,40.60
2018-10-17T04:57:56.100Z,35.40
2018-10-17T04:58:56.069Z,38.10
2018-10-17T04:59:56.010Z,38.60
2018-10-17T05:00:55.977Z,38.40
2018-10-17T05:01:55.928Z,38.60
2018-10-17T05:02:55.872Z,36.20
2018-10-17T05:03:55.831Z,37.10
2018-10-17T05:04:55.832Z,42.00
2018-10-17T05:05:55.736Z,36.00
2018-10-17T05:06:55.832Z,36.70
2018-10-17T05:07:55.646Z,37.60
2018-10-17T05:08:55.604Z,35.20
2018-10-17T05:09:55.555Z,32.40
2018-10-17T05:10:55.518Z,32.90
2018-10-17T05:11:55.474Z,35.20
2018-10-17T05:12:55.446Z,31.10
2018-10-17T05:13:55.377Z,39.30
2018-10-17T05:14:55.328Z,35.90
2018-10-17T05:15:55.286Z,34.30
2018-10-17T05:16:55.272Z,34.20
2018-10-17T05:17:55.193Z,34.80
2018-10-17T05:18:55.202Z,32.30
2018-10-17T05:19:55.100Z,36.80
2018-10-17T05:20:55.057Z,35.20
2018-10-17T05:21:55.014Z,29.90
2018-10-17T05:22:55.005Z,31.20
2018-10-17T05:23:54.921Z,34.10
2018-10-17T05:24:54.910Z,33.50
2018-10-17T05:25:54.837Z,34.70
2018-10-17T05:26:54.799Z,32.90
2018-10-17T05:27:54.745Z,34.10
2018-10-17T05:28:54.736Z,32.30
2018-10-17T05:29:54.774Z,33.70
2018-10-17T05:30:54.646Z,33.60
2018-10-17T05:31:54.556Z,32.70
2018-10-17T05:32:54.516Z,30.70
2018-10-17T05:33:54.465Z,29.40
2018-10-17T05:34:54.466Z,30.10
2018-10-17T05:35:54.381Z,29.00
2018-10-17T05:36:54.377Z,27.60
2018-10-17T05:37:54.312Z,29.40
2018-10-17T05:38:54.246Z,28.60
2018-10-17T05:39:54.199Z,30.90
2018-10-17T05:40:54.208Z,32.10
2018-10-17T05:41:54.106Z,29.60
2018-10-17T05:42:54.068Z,27.20
2018-10-17T05:43:54.034Z,27.70
2018-10-17T05:44:53.975Z,29.10
2018-10-17T05:45:53.924Z,31.50
2018-10-17T05:46:53.935Z,29.30
2018-10-17T05:47:53.835Z,31.10
2018-10-17T05:48:53.809Z,30.10
2018-10-17T05:49:53.742Z,27.70
2018-10-17T05:50:53.699Z,27.80
2018-10-17T05:51:53.651Z,30.10
2018-10-17T05:52:53.656Z,27.30
2018-10-17T05:53:53.565Z,29.00
2018-10-17T05:54:53.555Z,28.50
2018-10-17T05:55:53.472Z,26.70
2018-10-17T05:56:53.429Z,27.20
2018-10-17T05:57:53.380Z,29.50
2018-10-17T05:58:53.365Z,30.80
2018-10-17T05:59:53.295Z,28.20
2018-10-17T06:00:53.305Z,30.40
2018-10-17T06:01:53.246Z,29.00
2018-10-17T06:02:53.161Z,27.40
2018-10-17T06:03:53.117Z,29.60
2018-10-17T06:04:53.106Z,28.70
2018-10-17T06:05:53.017Z,27.00
2018-10-17T06:06:53.000Z,26.40
2018-10-17T06:07:52.926Z,26.90
2018-10-17T06:08:52.888Z,25.90
2018-10-17T06:09:52.837Z,30.20
2018-10-17T06:10:52.804Z,29.90
2018-10-17T06:11:52.862Z,28.00
2018-10-17T06:12:52.716Z,28.60
2018-10-17T06:13:52.742Z,27.50
2018-10-17T06:14:52.687Z,27.20
2018-10-17T06:15:52.664Z,27.30
2018-10-17T06:16:52.746Z,28.90
2018-10-17T06:17:52.588Z,26.60
2018-10-17T06:18:52.541Z,28.00
2018-10-17T06:19:52.389Z,28.20
2018-10-17T06:20:52.372Z,27.50
2018-10-17T06:21:52.296Z,30.60
2018-10-17T06:22:52.257Z,26.30
2018-10-17T06:23:52.208Z,31.20
2018-10-17T06:24:52.172Z,30.40
2018-10-17T06:25:52.114Z,29.20
2018-10-17T06:26:52.070Z,30.40
2018-10-17T06:27:52.029Z,29.00
2018-10-17T06:28:52.034Z,28.60
2018-10-17T06:29:51.952Z,27.50
2018-10-17T06:30:52.018Z,27.00
2018-10-17T06:31:51.839Z,28.50
2018-10-17T06:32:51.801Z,28.20
2018-10-17T06:33:51.830Z,29.30
2018-10-17T06:34:51.830Z,25.80
2018-10-17T06:35:51.676Z,23.70
2018-10-17T06:36:51.672Z,26.80
2018-10-17T06:37:51.570Z,23.70
2018-10-17T06:38:51.525Z,24.40
2018-10-17T06:39:51.476Z,27.00
2018-10-17T06:40:51.481Z,25.80
2018-10-17T06:41:51.385Z,25.50
2018-10-17T06:42:51.351Z,27.80
2018-10-17T06:43:51.316Z,25.40
2018-10-17T06:44:51.251Z,27.90
2018-10-17T06:45:51.212Z,25.90
2018-10-17T06:46:51.181Z,26.10
2018-10-17T06:47:51.120Z,24.50
2018-10-17T06:48:51.084Z,25.80
2018-10-17T06:49:51.025Z,23.60
2018-10-17T06:50:50.987Z,25.00
2018-10-17T06:51:50.935Z,25.10
2018-10-17T06:52:50.893Z,22.90
2018-10-17T06:53:50.860Z,23.90
2018-10-17T06:54:50.797Z,25.00
2018-10-17T06:55:50.753Z,25.90
2018-10-17T06:56:50.708Z,22.90
2018-10-17T06:57:50.664Z,23.90
2018-10-17T06:58:50.629Z,27.10
2018-10-17T06:59:50.572Z,28.20
2018-10-17T07:00:50.528Z,23.50
2018-10-17T07:01:50.598Z,27.50
2018-10-17T07:02:50.441Z,25.60
2018-10-17T07:03:50.399Z,25.00
2018-10-17T07:04:50.355Z,24.80
2018-10-17T07:05:50.305Z,24.50
2018-10-17T07:06:50.256Z,24.60
2018-10-17T07:07:50.209Z,23.50
2018-10-17T07:08:50.174Z,28.40
2018-10-17T07:09:50.118Z,26.10
2018-10-17T07:10:50.103Z,22.70
2018-10-17T07:11:50.030Z,24.40
2018-10-17T07:12:50.022Z,22.90
2018-10-17T07:13:49.938Z,24.90
2018-10-17T07:14:49.896Z,25.20
2018-10-17T07:15:49.930Z,22.00
2018-10-17T07:16:49.809Z,23.70
2018-10-17T07:17:49.765Z,23.80
2018-10-17T07:18:49.719Z,22.50
2018-10-17T07:19:49.672Z,24.80
2018-10-17T07:20:49.625Z,23.00
2018-10-17T07:21:49.578Z,21.90
2018-10-17T07:22:49.533Z,23.80
2018-10-17T07:23:49.493Z,23.60
2018-10-17T07:24:49.450Z,22.60
2018-10-17T07:25:49.401Z,20.70
2018-10-17T07:26:49.356Z,20.80
2018-10-17T07:27:49.312Z,24.60
2018-10-17T07:28:49.371Z,21.10
2018-10-17T07:29:49.361Z,21.10
2018-10-17T07:30:49.176Z,24.80
2018-10-17T07:31:49.136Z,19.90
2018-10-17T07:32:49.083Z,20.30
2018-10-17T07:33:49.044Z,22.60
2018-10-17T07:34:48.996Z,20.30
2018-10-17T07:35:48.968Z,25.40
2018-10-17T07:36:48.910Z,24.80
2018-10-17T07:37:48.858Z,20.90
2018-10-17T07:38:48.811Z,23.10
2018-10-17T07:39:48.766Z,26.20
2018-10-17T07:40:48.722Z,23.20
2018-10-17T07:41:48.682Z,23.20
2018-10-17T07:42:48.635Z,20.00
2018-10-17T07:43:48.590Z,21.50
2018-10-17T07:44:48.551Z,21.60
2018-10-17T07:45:48.528Z,23.10
2018-10-17T07:46:48.453Z,20.20
2018-10-17T07:47:50.990Z,21.50
2018-10-17T07:48:48.368Z,19.80
2018-10-17T07:49:48.328Z,19.20
2018-10-17T07:50:48.271Z,22.40
2018-10-17T07:51:48.230Z,21.80
2018-10-17T07:52:48.191Z,21.80
2018-10-17T07:53:48.142Z,23.50
2018-10-17T07:54:48.099Z,22.20
2018-10-17T07:55:48.050Z,23.20
2018-10-17T07:56:48.004Z,22.10
2018-10-17T07:57:47.960Z,22.40
2018-10-17T07:58:47.912Z,19.00
2018-10-17T07:59:47.992Z,22.40
2018-10-17T08:00:47.829Z,21.00
2018-10-17T08:01:47.788Z,22.00
2018-10-17T08:02:47.735Z,25.40
2018-10-17T08:03:47.690Z,24.90
2018-10-17T08:04:47.648Z,22.30
2018-10-17T08:05:47.609Z,21.70
2018-10-17T08:06:47.729Z,21.70
2018-10-17T08:07:47.518Z,20.80
2018-10-17T08:08:47.474Z,23.80
2018-10-17T08:09:47.427Z,20.90
2018-10-17T08:10:47.383Z,19.50
2018-10-17T08:11:47.338Z,23.50
2018-10-17T08:12:47.293Z,21.10
2018-10-17T08:13:47.246Z,20.60
2018-10-17T08:14:47.198Z,21.90
2018-10-17T08:15:47.155Z,18.60
2018-10-17T08:16:47.116Z,20.80
2018-10-17T08:17:47.070Z,21.80
2018-10-17T08:18:47.052Z,20.80
2018-10-17T08:19:46.981Z,20.70
2018-10-17T08:20:46.937Z,18.70
2018-10-17T08:21:46.891Z,21.40
2018-10-17T08:22:46.849Z,19.50
2018-10-17T08:23:46.805Z,27.30
2018-10-17T08:24:46.759Z,24.60
2018-10-17T08:25:46.709Z,25.40
2018-10-17T08:26:46.667Z,26.40
2018-10-17T08:27:46.629Z,25.00
2018-10-17T08:28:46.579Z,21.00
2018-10-17T08:29:46.532Z,24.30
2018-10-17T08:30:46.490Z,23.00
2018-10-17T08:31:46.445Z,20.90
2018-10-17T08:32:46.399Z,21.00
2018-10-17T08:33:46.357Z,20.10
2018-10-17T08:34:46.313Z,21.50
2018-10-17T08:35:46.302Z,17.10
2018-10-17T08:36:46.556Z,21.70
2018-10-17T08:37:46.548Z,17.00
2018-10-17T08:38:46.136Z,18.80
2018-10-17T08:39:46.091Z,18.00
2018-10-17T08:40:46.068Z,16.70
2018-10-17T08:41:46.004Z,16.00
2018-10-17T08:42:45.956Z,16.90
2018-10-17T08:43:45.915Z,15.40
2018-10-17T08:44:45.875Z,17.00
2018-10-17T08:45:45.827Z,17.30
2018-10-17T08:46:45.782Z,15.90
2018-10-17T08:47:45.739Z,12.80
2018-10-17T08:48:45.695Z,13.90
2018-10-17T08:49:45.650Z,17.90
2018-10-17T08:50:45.773Z,14.80
2018-10-17T08:51:45.564Z,13.20
2018-10-17T08:52:45.524Z,13.30
2018-10-17T08:53:45.482Z,13.10
2018-10-17T08:54:45.433Z,13.70
2018-10-17T08:55:45.392Z,12.20
2018-10-17T08:56:45.348Z,13.40
2018-10-17T08:57:45.349Z,12.10
2018-10-17T08:58:45.259Z,11.00
2018-10-17T08:59:45.221Z,10.30
2018-10-17T09:00:45.174Z,10.20
2018-10-17T09:01:45.127Z,11.60
2018-10-17T09:02:45.080Z,10.70
2018-10-17T09:03:45.039Z,10.50
2018-10-17T09:04:44.993Z,11.90
2018-10-17T09:05:44.983Z,10.20
2018-10-17T09:06:44.909Z,10.10
2018-10-17T09:07:44.932Z,14.00
2018-10-17T09:08:44.824Z,10.60
2018-10-17T09:09:44.788Z,13.90
2018-10-17T09:10:44.732Z,12.90
2018-10-17T09:11:44.704Z,10.30
2018-10-17T09:12:44.655Z,12.90
2018-10-17T09:13:44.607Z,10.10
2018-10-17T09:14:44.563Z,13.10
2018-10-17T09:15:44.520Z,10.50
2018-10-17T09:16:44.538Z,9.50
2018-10-17T09:17:44.430Z,9.30
2018-10-17T09:18:44.388Z,10.00
2018-10-17T09:19:44.542Z,9.40
2018-10-17T09:20:44.547Z,10.00
2018-10-17T09:21:44.653Z,9.20
2018-10-17T09:22:44.249Z,19.20
2018-10-17T09:23:44.175Z,8.90
2018-10-17T09:24:44.137Z,9.70
2018-10-17T09:25:44.248Z,10.40
2018-10-17T09:26:44.063Z,12.00
2018-10-17T09:27:43.999Z,9.40
2018-10-17T09:28:43.959Z,11.30
2018-10-17T09:29:43.918Z,9.90
2018-10-17T09:30:43.930Z,10.30
2018-10-17T09:31:43.833Z,9.30
2018-10-17T09:32:43.786Z,13.10
2018-10-17T09:33:43.742Z,8.80
2018-10-17T09:34:43.710Z,9.20
2018-10-17T09:35:43.818Z,9.10
2018-10-17T09:36:43.614Z,9.80
2018-10-17T09:37:43.573Z,10.20
2018-10-17T09:38:43.537Z,9.10
2018-10-17T09:39:43.491Z,9.60
2018-10-17T09:40:43.448Z,9.10
2018-10-17T09:41:43.403Z,10.80
2018-10-17T09:42:43.374Z,9.00
2018-10-17T09:43:43.319Z,10.60
2018-10-17T09:44:43.284Z,11.50
2018-10-17T09:45:43.236Z,11.90
2018-10-17T09:46:43.190Z,10.10
2018-10-17T09:47:43.152Z,10.70
2018-10-17T09:48:43.108Z,11.50
2018-10-17T09:49:43.069Z,10.00
2018-10-17T09:50:43.021Z,10.20
2018-10-17T09:51:42.980Z,9.30
2018-10-17T09:52:42.940Z,10.00
2018-10-17T09:53:42.897Z,10.00
2018-10-17T09:54:42.859Z,12.30
2018-10-17T09:55:42.819Z,10.00
2018-10-17T09:56:42.774Z,10.80
2018-10-17T09:57:42.748Z,10.50
2018-10-17T09:58:42.686Z,9.90
2018-10-17T09:59:42.642Z,9.70
2018-10-17T10:00:42.599Z,10.70
2018-10-17T10:01:42.561Z,10.30
2018-10-17T10:02:42.511Z,14.00
2018-10-17T10:03:42.475Z,10.20
2018-10-17T10:04:42.448Z,11.90
2018-10-17T10:05:42.386Z,10.00
2018-10-17T10:06:42.350Z,12.10
2018-10-17T10:07:42.312Z,11.60
2018-10-17T10:08:42.277Z,11.80
2018-10-17T10:09:42.218Z,10.50
2018-10-17T10:10:42.188Z,10.50
2018-10-17T10:11:42.134Z,12.20
2018-10-17T10:12:42.108Z,10.70
2018-10-17T10:13:42.055Z,14.30
2018-10-17T10:14:42.007Z,11.40
2018-10-17T10:15:41.970Z,11.10
2018-10-17T10:16:41.926Z,11.00
2018-10-17T10:17:42.006Z,10.90
2018-10-17T10:18:41.845Z,10.80
2018-10-17T10:19:41.800Z,11.10
2018-10-17T10:20:41.762Z,9.50
2018-10-17T10:21:41.715Z,11.10
2018-10-17T10:22:41.674Z,13.20
2018-10-17T10:23:41.711Z,16.20
2018-10-17T10:24:41.613Z,10.50
2018-10-17T10:25:41.549Z,10.70
2018-10-17T10:26:41.508Z,11.20
2018-10-17T10:27:41.468Z,11.10
2018-10-17T10:28:41.500Z,10.80
2018-10-17T10:29:41.400Z,11.10
2018-10-17T10:30:41.339Z,11.20
2018-10-17T10:31:41.301Z,10.60
2018-10-17T10:32:41.256Z,10.50
2018-10-17T10:33:41.225Z,10.50
2018-10-17T10:34:41.170Z,11.70
2018-10-17T10:35:41.133Z,13.20
2018-10-17T10:36:41.093Z,11.40
2018-10-17T10:37:41.042Z,12.60
2018-10-17T10:38:41.001Z,11.90
2018-10-17T10:39:40.963Z,10.60
2018-10-17T10:40:40.983Z,10.70
2018-10-17T10:41:40.877Z,13.60
2018-10-17T10:42:40.838Z,11.20
2018-10-17T10:43:40.830Z,11.30
2018-10-17T10:44:40.751Z,12.10
2018-10-17T10:45:40.760Z,11.20
2018-10-17T10:46:40.665Z,11.10
2018-10-17T10:47:40.627Z,11.20
2018-10-17T10:48:40.585Z,11.90
2018-10-17T10:49:40.542Z,10.80
2018-10-17T10:50:40.511Z,11.30
2018-10-17T10:51:40.530Z,11.00
2018-10-17T10:52:40.427Z,10.90
2018-10-17T10:53:40.377Z,11.60
2018-10-17T10:54:40.339Z,11.50
2018-10-17T10:55:40.292Z,12.70
2018-10-17T10:56:40.248Z,13.80
2018-10-17T10:57:40.215Z,12.00
2018-10-17T10:58:40.205Z,11.60
2018-10-17T10:59:40.280Z,10.90
2018-10-17T11:00:40.084Z,12.10
2018-10-17T11:01:40.062Z,11.40
2018-10-17T11:02:39.998Z,11.40
2018-10-17T11:03:39.955Z,11.40
2018-10-17T11:04:39.997Z,12.50
2018-10-17T11:05:40.093Z,13.10
2018-10-17T11:06:39.836Z,11.60
2018-10-17T11:07:39.792Z,11.30
2018-10-17T11:08:39.752Z,12.80
2018-10-17T11:09:39.712Z,11.10
2018-10-17T11:10:39.668Z,12.40
2018-10-17T11:11:39.632Z,11.80
2018-10-17T11:12:39.584Z,11.80
2018-10-17T11:13:39.547Z,11.80
2018-10-17T11:14:39.678Z,13.60
2018-10-17T11:15:39.458Z,11.40
2018-10-17T11:16:39.426Z,12.40
2018-10-17T11:17:39.376Z,17.70
2018-10-17T11:18:39.337Z,12.10
2018-10-17T11:19:39.298Z,11.70
2018-10-17T11:20:39.251Z,12.90
2018-10-17T11:21:39.272Z,13.70
2018-10-17T11:22:39.173Z,14.20
2018-10-17T11:23:39.128Z,12.20
2018-10-17T11:24:39.093Z,13.20
2018-10-17T11:25:39.045Z,12.20
2018-10-17T11:26:39.005Z,11.70
2018-10-17T11:27:38.967Z,11.80
2018-10-17T11:28:38.923Z,12.90
2018-10-17T11:29:38.881Z,13.20
2018-10-17T11:30:38.844Z,13.40
2018-10-17T11:31:38.802Z,15.30
2018-10-17T11:32:38.764Z,15.90
2018-10-17T11:33:38.721Z,14.70
2018-10-17T11:34:38.682Z,14.00
2018-10-17T11:35:38.643Z,13.90
2018-10-17T11:36:38.594Z,14.40
2018-10-17T11:37:38.695Z,13.80
2018-10-17T11:38:38.514Z,14.10
2018-10-17T11:39:38.475Z,14.10
2018-10-17T11:40:38.470Z,12.80
2018-10-17T11:41:38.464Z,14.30
2018-10-17T11:42:38.347Z,13.50
2018-10-17T11:43:38.306Z,14.60
2018-10-17T11:44:38.266Z,13.90
2018-10-17T11:45:38.226Z,15.00
2018-10-17T11:46:38.186Z,14.80
2018-10-17T11:47:38.214Z,15.20
2018-10-17T11:48:38.102Z,15.60
2018-10-17T11:49:38.069Z,16.40
2018-10-17T11:50:38.130Z,15.30
2018-10-17T11:51:37.985Z,15.80
2018-10-17T11:52:37.939Z,16.20
2018-10-17T11:53:37.901Z,18.80
2018-10-17T11:54:37.857Z,17.50
2018-10-17T11:55:37.822Z,14.40
2018-10-17T11:56:37.778Z,14.80
2018-10-17T11:57:37.738Z,16.40
2018-10-17T11:58:37.696Z,18.00
2018-10-17T11:59:37.764Z,16.00
2018-10-17T12:00:37.620Z,14.70
2018-10-17T12:01:37.574Z,17.30
2018-10-17T12:02:37.539Z,16.00
2018-10-17T12:03:37.526Z,15.70
2018-10-17T12:04:37.900Z,15.20
2018-10-17T12:05:37.849Z,17.10
2018-10-17T12:06:37.458Z,15.40
2018-10-17T12:07:37.333Z,17.30
2018-10-17T12:08:37.292Z,15.70
2018-10-17T12:09:37.248Z,17.30
2018-10-17T12:10:37.214Z,16.40
2018-10-17T12:11:37.175Z,17.00
2018-10-17T12:12:37.137Z,17.80
2018-10-17T12:13:37.093Z,16.40
2018-10-17T12:14:37.048Z,17.50
2018-10-17T12:15:37.005Z,16.10
2018-10-17T12:16:36.967Z,17.60
2018-10-17T12:17:36.928Z,18.50
2018-10-17T12:18:36.886Z,15.70
2018-10-17T12:19:36.853Z,16.80
2018-10-17T12:20:36.800Z,16.40
2018-10-17T12:21:36.990Z,16.20
2018-10-17T12:22:36.720Z,18.60
2018-10-17T12:23:36.681Z,18.50
2018-10-17T12:24:36.639Z,19.40
2018-10-17T12:25:36.601Z,19.70
2018-10-17T12:26:36.570Z,18.20
2018-10-17T12:27:36.561Z,18.00
2018-10-17T12:28:36.583Z,20.30
2018-10-17T12:29:36.441Z,17.80
2018-10-17T12:30:36.410Z,18.30
2018-10-17T12:31:36.357Z,20.50
2018-10-17T12:32:36.314Z,18.50
2018-10-17T12:33:36.272Z,18.60
2018-10-17T12:34:36.232Z,19.80
2018-10-17T12:35:36.200Z,23.70
2018-10-17T12:36:36.156Z,23.00
2018-10-17T12:37:36.115Z,21.70
2018-10-17T12:38:36.076Z,21.50
2018-10-17T12:39:36.066Z,23.50
2018-10-17T12:40:36.222Z,20.00
2018-10-17T12:41:36.018Z,25.80
2018-10-17T12:42:35.910Z,21.40
2018-10-17T12:43:35.873Z,24.40
2018-10-17T12:44:35.827Z,22.50
2018-10-17T12:45:35.858Z,22.50
2018-10-17T12:46:35.757Z,21.40
2018-10-17T12:47:35.704Z,23.10
2018-10-17T12:48:35.671Z,21.60
2018-10-17T12:49:35.708Z,22.30
2018-10-17T12:50:35.586Z,21.30
2018-10-17T12:51:35.549Z,21.30
2018-10-17T12:52:35.549Z,22.70